createdAt,value
2023-03-06T00:03:58.522Z,9
2023-03-06T00:09:00.218Z,15
2023-03-06T00:14:01.821Z,11
2023-03-06T00:19:03.573Z,17
2023-03-06T00:24:05.252Z,13
2023-03-06T00:29:06.873Z,17
2023-03-06T00:34:08.656Z,15
2023-03-06T00:39:10.587Z,13
2023-03-06T00:44:12.425Z,13
2023-03-06T00:49:14.172Z,17
2023-03-06T00:54:15.799Z,16
2023-03-06T00:59:17.454Z,16
2023-03-06T01:04:19.206Z,17
2023-03-06T01:09:20.794Z,16
2023-03-06T01:14:22.430Z,15
2023-03-06T01:19:24.144Z,16
2023-03-06T01:24:25.896Z,13
2023-03-06T01:29:27.692Z,14
2023-03-06T01:34:29.534Z,13
2023-03-06T01:39:31.150Z,10
2023-03-06T01:44:33.030Z,12
2023-03-06T01:49:34.754Z,15
2023-03-06T01:54:36.381Z,16
2023-03-06T01:59:38.213Z,14
2023-03-06T02:04:40.501Z,14
2023-03-06T02:09:42.201Z,13
2023-03-06T02:14:43.837Z,11
2023-03-06T02:19:45.557Z,9
2023-03-06T02:24:47.173Z,11
2023-03-06T02:29:49.209Z,11
2023-03-06T02:34:50.970Z,13
2023-03-06T02:39:52.609Z,10
2023-03-06T02:44:54.302Z,10
2023-03-06T02:49:56.047Z,10
2023-03-06T02:54:57.696Z,10
2023-03-06T02:59:59.292Z,11
2023-03-06T03:05:01.020Z,9
2023-03-06T03:10:02.613Z,9
2023-03-06T03:15:04.850Z,10
2023-03-06T03:20:06.489Z,10
2023-03-06T03:25:08.168Z,10
2023-03-06T03:30:09.845Z,9
2023-03-06T03:35:11.652Z,9
2023-03-06T03:40:13.265Z,9
2023-03-06T03:45:14.892Z,11
2023-03-06T03:50:16.445Z,6
2023-03-06T03:55:18.310Z,7
2023-03-06T04:00:20.050Z,6
2023-03-06T04:05:21.853Z,7
2023-03-06T04:10:23.644Z,6
2023-03-06T04:15:25.369Z,7
2023-03-06T04:20:27.069Z,8
2023-03-06T04:25:28.740Z,12
2023-03-06T04:30:30.350Z,11
2023-03-06T04:35:31.975Z,10
2023-03-06T04:40:33.660Z,12
2023-03-06T04:45:35.435Z,12
2023-03-06T04:50:37.055Z,15
2023-03-06T04:55:38.680Z,15
2023-03-06T05:00:40.362Z,12
2023-03-06T05:05:42.216Z,18
2023-03-06T05:10:43.893Z,16
2023-03-06T05:15:45.787Z,17
2023-03-06T05:20:47.500Z,14
2023-03-06T05:25:49.170Z,11
2023-03-06T05:30:50.802Z,7
2023-03-06T05:35:52.469Z,8
2023-03-06T05:40:54.150Z,6
2023-03-06T05:45:55.811Z,4
2023-03-06T05:50:57.575Z,4
2023-03-06T05:55:59.183Z,6
2023-03-06T06:01:00.869Z,8
2023-03-06T06:06:02.549Z,12
2023-03-06T06:11:04.176Z,13
2023-03-06T06:16:06.006Z,14
2023-03-06T06:21:07.774Z,14
2023-03-06T06:26:09.492Z,13
2023-03-06T06:31:11.216Z,12
2023-03-06T06:36:12.903Z,12
2023-03-06T06:41:46.066Z,9
2023-03-06T06:52:20.122Z,9
2023-03-06T06:57:21.790Z,9
2023-03-06T07:02:23.446Z,9
2023-03-06T07:07:26.528Z,7
2023-03-06T07:12:28.313Z,6
2023-03-06T07:17:29.983Z,7
2023-03-06T07:22:38.695Z,9
2023-03-06T07:27:52.806Z,8
2023-03-06T07:32:55.365Z,8
2023-03-06T07:37:56.998Z,9
2023-03-06T07:43:13.017Z,9
2023-03-06T07:48:20.183Z,8
2023-03-06T07:53:21.862Z,9
2023-03-06T07:58:23.522Z,12
2023-03-06T08:03:25.121Z,10
2023-03-06T08:08:26.792Z,8
2023-03-06T08:13:28.440Z,10
2023-03-06T08:18:30.034Z,7
2023-03-06T08:23:31.752Z,6
2023-03-06T08:28:33.398Z,3
2023-03-06T08:33:35.070Z,2
2023-03-06T08:38:36.691Z,3
2023-03-06T08:43:38.617Z,2
2023-03-06T08:48:40.313Z,2
2023-03-06T08:53:43.823Z,2
2023-03-06T08:58:45.866Z,4
2023-03-06T09:03:47.600Z,4
2023-03-06T09:08:49.259Z,4
2023-03-06T09:13:50.865Z,3
2023-03-06T09:18:52.520Z,4
2023-03-06T09:23:54.252Z,2
2023-03-06T09:28:55.824Z,3
2023-03-06T09:33:57.440Z,3
2023-03-06T09:38:59.084Z,3
2023-03-06T09:44:00.729Z,4
2023-03-06T09:49:02.486Z,3
2023-03-06T09:54:04.354Z,4
2023-03-06T09:59:05.974Z,3
2023-03-06T10:04:07.662Z,3
2023-03-06T10:09:09.324Z,4
2023-03-06T10:14:11.208Z,3
2023-03-06T10:19:12.891Z,3
2023-03-06T10:24:14.612Z,2
2023-03-06T10:29:16.226Z,3
2023-03-06T10:34:17.858Z,3
2023-03-06T10:39:19.472Z,4
2023-03-06T10:44:21.082Z,3
2023-03-06T10:49:22.705Z,3
2023-03-06T10:54:24.476Z,4
2023-03-06T10:59:26.131Z,3
2023-03-06T11:04:27.863Z,3
2023-03-06T11:09:29.611Z,5
2023-03-06T11:14:31.213Z,6
2023-03-06T11:19:32.916Z,6
2023-03-06T11:24:34.563Z,3
2023-03-06T11:29:38.457Z,4
2023-03-06T11:34:40.400Z,4
2023-03-06T11:39:42.010Z,4
2023-03-06T11:44:43.640Z,3
2023-03-06T11:49:45.345Z,3
2023-03-06T11:54:46.986Z,3
2023-03-06T11:59:48.770Z,5
2023-03-06T12:04:50.462Z,6
2023-03-06T12:09:52.096Z,5
2023-03-06T12:14:53.722Z,4
2023-03-06T12:19:55.425Z,6
2023-03-06T12:24:57.090Z,6
2023-03-06T12:29:58.697Z,5
2023-03-06T12:35:00.402Z,4
2023-03-06T12:40:02.073Z,3
2023-03-06T12:45:03.760Z,6
2023-03-06T12:50:05.353Z,5
2023-03-06T12:55:07.118Z,6
2023-03-06T13:00:08.753Z,8
2023-03-06T13:05:10.401Z,8
2023-03-06T13:10:12.186Z,6
2023-03-06T13:15:13.759Z,4
2023-03-06T13:20:15.509Z,5
2023-03-06T13:25:17.144Z,6
2023-03-06T13:30:18.747Z,6
2023-03-06T13:35:20.395Z,5
2023-03-06T13:40:22.038Z,6
2023-03-06T13:45:23.634Z,5
2023-03-06T13:50:25.495Z,6
2023-03-06T13:55:27.108Z,10
2023-03-06T14:00:28.825Z,8
2023-03-06T14:05:30.432Z,6
2023-03-06T14:10:32.130Z,7
2023-03-06T14:15:34.036Z,6
2023-03-06T14:20:35.702Z,7
2023-03-06T14:25:37.320Z,6
2023-03-06T14:30:39.004Z,6
2023-03-06T14:35:40.632Z,8
2023-03-06T14:40:42.321Z,5
2023-03-06T14:45:43.957Z,6
2023-03-06T14:50:45.608Z,3
2023-03-06T14:55:47.281Z,3
2023-03-06T15:00:48.980Z,5
2023-03-06T15:05:50.658Z,2
2023-03-06T15:10:52.264Z,6
2023-03-06T15:15:53.949Z,3
2023-03-06T15:20:55.634Z,3
2023-03-06T15:25:57.504Z,3
2023-03-06T15:30:59.343Z,3
2023-03-06T15:36:01.030Z,5
2023-03-06T15:41:02.657Z,5
2023-03-06T15:46:04.415Z,52
2023-03-06T15:51:06.204Z,14
2023-03-06T15:56:07.870Z,9
2023-03-06T16:01:09.634Z,5
2023-03-06T16:06:11.475Z,6
2023-03-06T16:11:13.129Z,6
2023-03-06T16:16:14.939Z,7
2023-03-06T16:21:16.654Z,7
2023-03-06T16:26:18.323Z,6
2023-03-06T16:31:19.993Z,6
2023-03-06T16:36:21.649Z,9
2023-03-06T16:41:23.265Z,9
2023-03-06T16:46:24.949Z,7
2023-03-06T16:51:26.709Z,6
2023-03-06T16:56:28.370Z,6
2023-03-06T17:01:30.128Z,5
2023-03-06T17:06:31.861Z,5
2023-03-06T17:11:33.765Z,6
2023-03-06T17:16:35.402Z,5
2023-03-06T17:21:37.220Z,3
2023-03-06T17:26:39.029Z,6
2023-03-06T17:31:40.659Z,4
2023-03-06T17:36:42.359Z,5
2023-03-06T17:41:46.300Z,3
2023-03-06T17:46:48.414Z,5
2023-03-06T17:51:50.190Z,3
2023-03-06T17:56:52.067Z,5
2023-03-06T18:01:53.793Z,5
2023-03-06T18:06:55.410Z,6
2023-03-06T18:11:57.062Z,6
2023-03-06T18:16:58.671Z,5
2023-03-06T18:22:00.296Z,6
2023-03-06T18:27:02.004Z,5
2023-03-06T18:32:03.852Z,9
2023-03-06T18:37:05.716Z,10
2023-03-06T18:42:07.346Z,10
2023-03-06T18:47:08.945Z,7
2023-03-06T18:52:10.892Z,9
2023-03-06T18:57:12.722Z,11
2023-03-06T19:02:14.360Z,15
2023-03-06T19:07:16.216Z,14
2023-03-06T19:12:17.831Z,15
2023-03-06T19:17:19.539Z,15
2023-03-06T19:22:21.184Z,13
2023-03-06T19:27:22.837Z,11
2023-03-06T19:32:24.568Z,10
2023-03-06T19:37:26.204Z,9
2023-03-06T19:42:27.822Z,11
2023-03-06T19:47:29.438Z,10
2023-03-06T19:52:31.280Z,9
2023-03-06T19:57:33.080Z,13
2023-03-06T20:02:34.755Z,13
2023-03-06T20:07:36.513Z,11
2023-03-06T20:12:38.174Z,15
2023-03-06T20:17:39.856Z,13
2023-03-06T20:22:41.756Z,14
2023-03-06T20:27:43.431Z,13
2023-03-06T20:32:45.364Z,14
2023-03-06T20:37:46.980Z,14
2023-03-06T20:42:48.633Z,13
2023-03-06T20:47:50.348Z,14
2023-03-06T20:52:52.008Z,13
2023-03-06T20:57:53.601Z,17
2023-03-06T21:02:55.358Z,13
2023-03-06T21:07:56.993Z,13
2023-03-06T21:12:58.596Z,13
2023-03-06T21:18:00.375Z,13
2023-03-06T21:23:02.112Z,11
2023-03-06T21:28:03.965Z,11
2023-03-06T21:33:05.648Z,13
2023-03-06T21:38:07.456Z,13
2023-03-06T21:43:09.138Z,11
2023-03-06T21:48:10.990Z,14
2023-03-06T21:53:12.674Z,13
2023-03-06T21:58:14.595Z,11
2023-03-06T22:03:16.602Z,12
2023-03-06T22:08:18.123Z,12
2023-03-06T22:13:19.737Z,10
2023-03-06T22:18:21.361Z,9
2023-03-06T22:23:23.186Z,11
2023-03-06T22:28:24.856Z,10
2023-03-06T22:33:26.550Z,9
2023-03-06T22:38:28.213Z,8
2023-03-06T22:43:30.053Z,15
2023-03-06T22:48:31.958Z,17
2023-03-06T22:53:33.618Z,10
2023-03-06T22:58:35.274Z,8
2023-03-06T23:03:36.906Z,8
2023-03-06T23:08:38.548Z,6
2023-03-06T23:13:40.284Z,9
2023-03-06T23:18:41.927Z,13
2023-03-06T23:23:43.590Z,15
2023-03-06T23:28:45.239Z,15
2023-03-06T23:33:47.009Z,15
2023-03-06T23:38:48.632Z,8
2023-03-06T23:43:50.325Z,9
2023-03-06T23:48:51.938Z,9
2023-03-06T23:53:54.328Z,9
2023-03-06T23:58:55.949Z,7
